Time;durP1;ratioP1;P1;durP2;ratioP2;P2;SDS_P1;SDS_P2;PMS_P1;PMS_P2;Temp;Humidity;BMP_temperature;BMP_pressure;BME280_temperature;BME280_humidity;BME280_pressure;Samples;Min_cycle;Max_cycle;Signal;HPM_P1;HPM_P2
2023/09/04 00:03:54;;;;;;;3.80;2.60;;;;;;;17.23;100.00;101365.98;177834;1257;46137;-83
2023/09/04 00:07:58;;;;;;;5.20;3.50;;;;;;;17.28;100.00;101366.59;177852;1258;59672;-82
2023/09/04 00:12:01;;;;;;;3.70;2.60;;;;;;;17.29;100.00;101367.89;177764;1259;46224;-83
2023/09/04 00:16:04;;;;;;;3.90;2.90;;;;;;;17.30;100.00;101370.92;178055;1259;45992;-83
2023/09/04 00:20:08;;;;;;;3.80;3.40;;;;;;;17.31;100.00;101366.95;177644;1259;46077;-83
2023/09/04 00:24:11;;;;;;;4.60;3.00;;;;;;;17.33;100.00;101360.98;177498;1260;46086;-84
2023/09/04 00:28:18;;;;;;;6.40;3.50;;;;;;;17.32;100.00;101357.45;177247;1259;57951;-84
2023/09/04 00:32:21;;;;;;;4.00;3.40;;;;;;;17.08;100.00;101363.38;177397;1261;45965;-83
2023/09/04 00:36:24;;;;;;;4.70;4.20;;;;;;;16.83;100.00;101367.06;177710;1259;46218;-83
2023/09/04 00:40:27;;;;;;;4.40;3.00;;;;;;;16.77;100.00;101372.66;177650;1259;46098;-83
2023/09/04 00:44:30;;;;;;;4.10;3.60;;;;;;;16.72;100.00;101374.54;177431;1262;46054;-83
2023/09/04 00:48:34;;;;;;;5.20;3.00;;;;;;;16.69;100.00;101376.38;177411;1257;57965;-83
2023/09/04 00:52:38;;;;;;;5.10;4.00;;;;;;;16.65;100.00;101379.82;177288;1258;46068;-83
2023/09/04 00:56:41;;;;;;;6.70;3.50;;;;;;;16.60;100.00;101377.92;177391;1259;44391;-83
2023/09/04 01:00:44;;;;;;;4.40;3.60;;;;;;;16.54;100.00;101372.72;177609;1259;45973;-83
2023/09/04 01:04:47;;;;;;;7.10;3.80;;;;;;;16.43;100.00;101379.64;177110;1262;46107;-83
2023/09/04 01:08:51;;;;;;;6.20;3.80;;;;;;;16.30;100.00;101382.17;177304;1258;58348;-83
2023/09/04 01:13:07;;;;;;;5.50;4.60;;;;;;;16.27;100.00;101382.48;177420;1259;45994;-83
2023/09/04 01:17:12;;;;;;;16.30;4.30;;;;;;;16.26;100.00;101380.40;177153;1259;44906;-83
2023/09/04 01:21:16;;;;;;;8.80;4.10;;;;;;;16.25;100.00;101379.39;177627;1259;45888;-83
2023/09/04 01:25:21;;;;;;;4.90;3.50;;;;;;;16.12;100.00;101389.68;177413;1257;46126;-83
2023/09/04 01:29:39;;;;;;;5.10;4.40;;;;;;;15.91;100.00;101398.67;177281;1259;57900;-82
2023/09/04 01:33:49;;;;;;;6.00;3.20;;;;;;;15.83;100.00;101389.67;177183;1260;45978;-83
2023/09/04 01:37:54;;;;;;;5.50;4.20;;;;;;;15.70;100.00;101391.48;177325;1259;45999;-83
2023/09/04 01:41:57;;;;;;;4.00;3.60;;;;;;;15.61;100.00;101395.66;177637;1260;44576;-83
2023/09/04 01:46:00;;;;;;;9.30;4.80;;;;;;;15.55;100.00;101391.29;177820;1260;45946;-84
2023/09/04 01:50:04;;;;;;;4.80;3.60;;;;;;;15.59;100.00;101387.02;177409;1259;58577;-83
2023/09/04 01:54:08;;;;;;;4.90;4.00;;;;;;;15.57;100.00;101372.34;177571;1259;45970;-83
2023/09/04 01:58:12;;;;;;;5.00;3.60;;;;;;;15.52;100.00;101371.93;177364;1260;46107;-83
2023/09/04 02:02:15;;;;;;;5.50;4.10;;;;;;;15.60;100.00;101363.39;177620;1262;46254;-84
2023/09/04 02:06:19;;;;;;;4.20;3.80;;;;;;;15.51;100.00;101369.50;177352;1260;46053;-83
2023/09/04 02:10:23;;;;;;;5.80;4.20;;;;;;;15.42;100.00;101370.09;177420;1260;59721;-83
2023/09/04 02:14:28;;;;;;;5.70;4.10;;;;;;;15.43;100.00;101367.98;177407;1258;46020;-83
2023/09/04 02:18:31;;;;;;;11.40;4.30;;;;;;;15.48;100.00;101368.27;177371;1262;45899;-84
2023/09/04 02:22:34;;;;;;;5.30;4.20;;;;;;;15.44;100.00;101365.45;177304;1260;45079;-83
2023/09/04 02:26:37;;;;;;;7.20;4.10;;;;;;;15.38;100.00;101364.34;177505;1258;44720;-84
2023/09/04 02:30:41;;;;;;;5.00;4.40;;;;;;;15.49;100.00;101365.40;177355;1260;57951;-84
2023/09/04 02:34:44;;;;;;;5.10;4.20;;;;;;;15.54;100.00;101374.74;177361;1260;46062;-84
2023/09/04 02:38:47;;;;;;;7.90;4.40;;;;;;;15.54;100.00;101389.92;177273;1259;45274;-84
2023/09/04 02:42:50;;;;;;;7.60;4.20;;;;;;;15.60;100.00;101387.90;177530;1259;46150;-84
2023/09/04 02:46:54;;;;;;;7.80;4.60;;;;;;;15.69;100.00;101392.61;177463;1260;46188;-83
2023/09/04 02:50:58;;;;;;;4.60;4.10;;;;;;;15.76;100.00;101394.05;177375;1260;59312;-84
2023/09/04 02:55:03;;;;;;;6.30;4.70;;;;;;;15.78;100.00;101388.61;177545;1258;46098;-83
2023/09/04 02:59:06;;;;;;;9.40;4.00;;;;;;;15.87;100.00;101388.09;177633;1258;44093;-82
2023/09/04 03:03:10;;;;;;;4.00;3.60;;;;;;;15.77;100.00;101398.70;177907;1262;49063;-83
2023/09/04 03:07:14;;;;;;;5.70;3.40;;;;;;;15.64;100.00;101401.33;177457;1260;46108;-83
2023/09/04 03:11:17;;;;;;;4.70;3.90;;;;;;;15.65;100.00;101393.52;177403;1258;58369;-83
2023/09/04 03:15:21;;;;;;;4.10;3.50;;;;;;;15.72;100.00;101393.81;177214;1258;46141;-83
2023/09/04 03:19:24;;;;;;;6.20;4.00;;;;;;;15.78;100.00;101396.52;177359;1259;45997;-84
2023/09/04 03:23:28;;;;;;;4.70;3.20;;;;;;;15.81;100.00;101397.85;177588;1259;45932;-84
2023/09/04 03:27:32;;;;;;;8.80;4.60;;;;;;;15.77;100.00;101398.54;177356;1259;46027;-83
2023/09/04 03:31:36;;;;;;;6.20;3.80;;;;;;;15.77;100.00;101403.41;176988;1259;59258;-83
2023/09/04 03:35:39;;;;;;;4.50;3.40;;;;;;;15.66;100.00;101411.29;177223;1257;46117;-84
2023/09/04 03:39:42;;;;;;;5.30;4.60;;;;;;;15.50;100.00;101419.45;177941;1262;44601;-84
2023/09/04 03:43:47;;;;;;;5.10;4.30;;;;;;;15.40;100.00;101420.29;177265;1260;45252;-83
2023/09/04 03:47:50;;;;;;;6.50;3.80;;;;;;;15.35;100.00;101419.27;177573;1262;45990;-84
2023/09/04 03:51:54;;;;;;;4.20;3.80;;;;;;;15.34;100.00;101416.67;177421;1262;59867;-84
2023/09/04 03:56:03;;;;;;;4.70;4.20;;;;;;;15.36;100.00;101405.14;176972;1260;46050;-83
2023/09/04 04:00:19;;;;;;;6.30;3.80;;;;;;;15.24;100.00;101415.55;177205;1260;45974;-85
2023/09/04 04:04:22;;;;;;;;;;;;;;;15.08;100.00;101436.30;177910;1257;44091;-84
2023/09/04 04:08:26;;;;;;;4.80;3.60;;;;;;;15.03;100.00;101452.30;179685;1260;45929;-84
2023/09/04 04:12:30;;;;;;;4.80;3.30;;;;;;;15.04;100.00;101448.09;178460;1259;59324;-84
2023/09/04 04:16:37;;;;;;;4.40;3.60;;;;;;;15.16;100.00;101438.92;179469;1258;46450;-84
2023/09/04 04:20:40;;;;;;;6.20;5.20;;;;;;;15.12;100.00;101437.80;178454;1260;45997;-84
2023/09/04 04:24:43;;;;;;;6.40;4.60;;;;;;;15.06;100.00;101442.02;178607;1260;45974;-84
2023/09/04 04:28:46;;;;;;;7.30;4.20;;;;;;;14.99;100.00;101450.77;178079;1260;46063;-83
2023/09/04 04:32:52;;;;;;;17.80;3.50;;;;;;;14.98;100.00;101459.31;177895;1262;58567;-84
2023/09/04 04:36:56;;;;;;;;;;;;;;;14.99;100.00;101454.88;177903;1257;46094;-84
2023/09/04 04:40:59;;;;;;;7.70;4.70;;;;;;;15.03;100.00;101455.46;179034;1261;45823;-84
2023/09/04 04:45:03;;;;;;;7.30;3.80;;;;;;;15.08;100.00;101458.66;178280;1262;45984;-84
2023/09/04 04:49:07;;;;;;;7.90;5.20;;;;;;;15.25;100.00;101460.33;179366;1262;45345;-83
2023/09/04 04:53:11;;;;;;;8.10;4.80;;;;;;;15.43;100.00;101472.06;178007;1260;59056;-84
2023/09/04 04:57:16;;;;;;;7.90;4.60;;;;;;;15.51;100.00;101472.77;178046;1261;46213;-84
2023/09/04 05:01:19;;;;;;;8.60;4.00;;;;;;;15.52;100.00;101481.65;178175;1258;44122;-84
2023/09/04 05:05:23;;;;;;;6.80;4.20;;;;;;;15.54;100.00;101482.40;178960;1261;46041;-84
2023/09/04 05:09:26;;;;;;;6.00;4.40;;;;;;;15.57;100.00;101481.23;178614;1260;46101;-84
2023/09/04 05:13:31;;;;;;;5.80;3.50;;;;;;;15.64;100.00;101486.90;177641;1259;60261;-85
2023/09/04 05:17:34;;;;;;;5.90;3.70;;;;;;;15.76;100.00;101488.27;177823;1260;46111;-85
2023/09/04 05:21:37;;;;;;;4.30;3.80;;;;;;;16.01;100.00;101488.83;179603;1260;46040;-84
2023/09/04 05:25:57;;;;;;;7.50;5.30;;;;;;;16.94;100.00;101487.58;178336;1260;45870;-84
2023/09/04 05:30:00;;;;;;;4.40;3.80;;;;;;;17.72;100.00;101481.40;178500;1260;46133;-84
2023/09/04 05:34:04;;;;;;;4.80;3.50;;;;;;;17.61;100.00;101486.89;178584;1259;58595;-84
2023/09/04 05:38:07;;;;;;;7.30;4.80;;;;;;;17.52;100.00;101487.03;178184;1258;46153;-85
2023/09/04 05:42:11;;;;;;;4.50;4.00;;;;;;;17.49;100.00;101485.10;177443;1262;46008;-84
2023/09/04 05:46:15;;;;;;;6.70;4.20;;;;;;;17.41;100.00;101486.19;178685;1259;46083;-84
2023/09/04 05:50:19;;;;;;;5.60;4.70;;;;;;;17.37;100.00;101485.73;179460;1259;44748;-84
2023/09/04 05:54:23;;;;;;;5.90;4.70;;;;;;;17.42;100.00;101480.21;177449;1262;58060;-84
2023/09/04 05:58:26;;;;;;;5.40;4.10;;;;;;;17.50;100.00;101480.77;177523;1261;46159;-84
2023/09/04 06:02:29;;;;;;;6.60;5.40;;;;;;;17.84;100.00;101479.63;177854;1260;46402;-84
2023/09/04 06:06:33;;;;;;;4.00;3.70;;;;;;;18.51;100.00;101482.44;177818;1257;46096;-85
2023/09/04 06:10:36;;;;;;;5.90;4.40;;;;;;;19.08;100.00;101485.79;178551;1262;46140;-85
2023/09/04 06:14:40;;;;;;;6.00;3.60;;;;;;;19.33;100.00;101489.98;178080;1261;58288;-84
2023/09/04 06:18:43;;;;;;;6.40;3.70;;;;;;;19.03;100.00;101490.94;177953;1258;46051;-84
2023/09/04 06:22:46;;;;;;;7.50;3.60;;;;;;;18.67;100.00;101494.23;178316;1260;46030;-85
2023/09/04 06:26:51;;;;;;;3.90;3.20;;;;;;;18.31;100.00;101493.90;178346;1262;46088;-84
2023/09/04 06:30:56;;;;;;;3.30;3.00;;;;;;;18.02;100.00;101490.35;178053;1263;46108;-84
2023/09/04 06:34:59;;;;;;;5.50;4.40;;;;;;;18.14;100.00;101490.10;178760;1259;60497;-84
2023/09/04 06:39:03;;;;;;;4.60;4.10;;;;;;;18.21;100.00;101496.97;178471;1260;46057;-84
2023/09/04 06:43:06;;;;;;;7.70;4.00;;;;;;;18.46;100.00;101500.19;178949;1261;45945;-84
2023/09/04 06:47:10;;;;;;;6.20;4.70;;;;;;;18.74;100.00;101502.54;178264;1260;45948;-84
2023/09/04 06:51:13;;;;;;;7.30;3.80;;;;;;;19.22;100.00;101498.80;179071;1260;45121;-84
2023/09/04 06:55:17;;;;;;;5.40;3.00;;;;;;;19.67;99.65;101495.95;178121;1261;58248;-83
2023/09/04 06:59:20;;;;;;;4.30;3.80;;;;;;;19.71;99.56;101496.08;178154;1261;46182;-84
2023/09/04 07:03:23;;;;;;;4.20;3.50;;;;;;;19.64;99.82;101491.86;177486;1260;46080;-83
2023/09/04 07:07:28;;;;;;;6.00;3.90;;;;;;;19.75;100.00;101484.46;179951;1262;46102;-84
2023/09/04 07:11:32;;;;;;;4.60;4.10;;;;;;;20.04;99.84;101480.60;178044;1260;46049;-83
2023/09/04 07:15:36;;;;;;;4.90;3.60;;;;;;;20.29;99.30;101490.48;177747;1261;58072;-83
2023/09/04 07:19:39;;;;;;;6.20;3.80;;;;;;;20.58;98.53;101496.52;178203;1259;45981;-84
2023/09/04 07:23:43;;;;;;;4.60;2.50;;;;;;;20.83;97.82;101502.00;178755;1261;46031;-84
2023/09/04 07:27:46;;;;;;;8.10;1.90;;;;;;;20.86;91.56;101509.79;178579;1258;46153;-83
2023/09/04 07:31:49;;;;;;;4.60;2.80;;;;;;;20.84;91.08;101511.98;178181;1260;44209;-84
2023/09/04 07:35:54;;;;;;;3.90;2.90;;;;;;;20.76;92.20;101520.23;178437;1258;59241;-84
2023/09/04 07:39:58;;;;;;;4.10;2.30;;;;;;;20.73;94.80;101521.83;178693;1258;46168;-83
2023/09/04 07:44:01;;;;;;;8.00;3.20;;;;;;;20.83;92.52;101515.72;179584;1260;45952;-84
2023/09/04 07:48:05;;;;;;;6.40;3.00;;;;;;;20.95;92.56;101507.45;178700;1262;45991;-85
2023/09/04 07:52:08;;;;;;;3.70;2.30;;;;;;;21.00;93.10;101507.27;178058;1260;46169;-84
2023/09/04 07:56:11;;;;;;;4.80;2.40;;;;;;;21.27;92.92;101506.92;177445;1259;59594;-84
2023/09/04 08:00:21;;;;;;;3.50;1.90;;;;;;;21.46;90.99;101500.14;178213;1260;45122;-84
2023/09/04 08:04:25;;;;;;;1.90;1.70;;;;;;;21.63;90.07;101506.08;177883;1258;46059;-84
2023/09/04 08:08:28;;;;;;;2.40;1.90;;;;;;;21.59;89.16;101504.34;177861;1260;46124;-84
2023/09/04 08:12:31;;;;;;;2.80;2.20;;;;;;;21.62;88.16;101509.83;177819;1258;46054;-84
2023/09/04 08:16:34;;;;;;;3.20;2.30;;;;;;;21.59;86.93;101507.08;178154;1260;57233;-84
2023/09/04 08:20:39;;;;;;;2.30;1.80;;;;;;;21.58;87.50;101507.71;178483;1260;45987;-84
2023/09/04 08:24:42;;;;;;;2.70;2.30;;;;;;;21.81;86.47;101505.54;179440;1261;46086;-84
2023/09/04 08:28:45;;;;;;;2.90;2.30;;;;;;;21.90;85.41;101505.91;178361;1260;45990;-84
2023/09/04 08:32:48;;;;;;;4.10;1.50;;;;;;;21.83;86.36;101505.54;177836;1260;45234;-84
2023/09/04 08:36:52;;;;;;;4.50;2.60;;;;;;;21.76;85.50;101502.13;178102;1258;59343;-84
2023/09/04 08:40:59;;;;;;;2.20;2.00;;;;;;;21.80;87.21;101503.39;178583;1259;46060;-84
2023/09/04 08:45:03;;;;;;;3.00;1.90;;;;;;;21.85;86.14;101502.93;178937;1258;46080;-84
2023/09/04 08:49:06;;;;;;;2.50;2.10;;;;;;;22.03;84.41;101500.23;178118;1258;46076;-84
2023/09/04 08:53:10;;;;;;;3.00;1.80;;;;;;;22.15;82.70;101509.08;177716;1257;45983;-84
2023/09/04 08:57:14;;;;;;;3.50;2.20;;;;;;;22.06;83.98;101507.51;178077;1260;59870;-84
2023/09/04 09:01:19;;;;;;;3.50;1.50;;;;;;;22.16;83.14;101505.17;178359;1260;45943;-83
2023/09/04 09:05:23;;;;;;;4.20;2.10;;;;;;;22.19;82.97;101507.92;178149;1260;44507;-83
2023/09/04 09:09:28;;;;;;;2.60;1.20;;;;;;;22.08;81.26;101512.51;178025;1260;45987;-85
2023/09/04 09:13:31;;;;;;;2.30;1.50;;;;;;;22.13;81.33;101514.90;179114;1260;46073;-83
2023/09/04 09:17:35;;;;;;;2.80;1.40;;;;;;;22.35;82.35;101515.11;177982;1261;59225;-84
2023/09/04 09:21:38;;;;;;;1.60;0.80;;;;;;;22.41;81.58;101512.71;178061;1260;45962;-83
2023/09/04 09:25:54;;;;;;;2.50;1.40;;;;;;;22.48;79.61;101509.15;177748;1257;46025;-83
2023/09/04 09:30:00;;;;;;;1.40;1.20;;;;;;;22.50;79.15;101502.09;177515;1260;46079;-83
2023/09/04 09:34:04;;;;;;;;;;;;;;;22.49;78.83;101495.85;177556;1257;46263;-84
2023/09/04 09:38:08;;;;;;;4.60;1.50;;;;;;;22.53;76.72;101497.92;177710;1260;216947;-83
2023/09/04 09:42:12;;;;;;;2.00;1.10;;;;;;;22.65;75.49;101496.95;178046;1259;45839;-83
2023/09/04 09:46:18;;;;;;;2.70;1.40;;;;;;;22.75;76.75;101497.23;177869;1258;45977;-84
2023/09/04 09:50:24;;;;;;;2.60;1.80;;;;;;;22.79;77.79;101493.49;177710;1258;45999;-83
2023/09/04 09:54:36;;;;;;;1.30;1.20;;;;;;;22.83;76.86;101488.93;177949;1259;46089;-83
2023/09/04 09:58:45;;;;;;;5.30;1.70;;;;;;;22.78;77.01;101488.08;177951;1258;58233;-83
2023/09/04 10:02:48;;;;;;;2.20;1.80;;;;;;;22.84;75.22;101487.70;177826;1260;46048;-83
2023/09/04 10:06:54;;;;;;;2.30;1.30;;;;;;;22.93;74.53;101488.91;177604;1260;45986;-83
2023/09/04 10:10:57;;;;;;;2.00;1.20;;;;;;;23.02;73.02;101482.20;177910;1259;46140;-83
2023/09/04 10:15:05;;;;;;;1.60;1.40;;;;;;;23.03;72.82;101477.48;177500;1259;46190;-83
2023/09/04 10:19:11;;;;;;;3.10;1.80;;;;;;;23.06;72.91;101470.58;177714;1261;59214;-84
2023/09/04 10:23:22;;;;;;;1.80;1.60;;;;;;;23.13;72.59;101467.91;177323;1260;46143;-83
2023/09/04 10:27:30;;;;;;;2.90;1.80;;;;;;;23.33;72.71;101469.06;177723;1260;46105;-84
2023/09/04 10:31:35;;;;;;;2.30;1.10;;;;;;;23.43;71.73;101463.71;177440;1257;46069;-84
2023/09/04 10:35:38;;;;;;;2.10;1.20;;;;;;;23.45;71.60;101461.11;178085;1260;46102;-83
2023/09/04 10:39:43;;;;;;;3.50;1.00;;;;;;;23.53;71.37;101460.73;177671;1260;59235;-84
2023/09/04 10:43:52;;;;;;;2.70;1.70;;;;;;;23.55;69.54;101451.48;178392;1257;44696;-84
2023/09/04 10:47:55;;;;;;;1.60;1.30;;;;;;;23.59;69.97;101447.80;178002;1260;46102;-84
2023/09/04 10:51:58;;;;;;;2.00;1.40;;;;;;;23.71;70.48;101450.25;178048;1259;45095;-84
2023/09/04 10:56:11;;;;;;;2.40;1.50;;;;;;;23.77;69.64;101450.30;178289;1258;44051;-83
2023/09/04 11:00:28;;;;;;;2.50;0.90;;;;;;;23.82;70.11;101452.50;177521;1260;59609;-83
2023/09/04 11:04:47;;;;;;;1.80;1.10;;;;;;;23.73;69.60;101445.55;177790;1257;46082;-84
2023/09/04 11:08:51;;;;;;;2.10;1.10;;;;;;;23.87;68.04;101440.76;178181;1258;46009;-84
2023/09/04 11:12:58;;;;;;;2.20;1.10;;;;;;;24.04;69.25;101436.52;178087;1257;46038;-85
2023/09/04 11:17:03;;;;;;;4.20;1.10;;;;;;;24.03;69.87;101439.99;178203;1262;45968;-84
2023/09/04 11:21:10;;;;;;;2.50;0.90;;;;;;;24.03;69.27;101443.70;177552;1258;58216;-84
2023/09/04 11:25:15;;;;;;;1.90;1.60;;;;;;;24.07;68.38;101444.79;178385;1259;44782;-84
2023/09/04 11:29:19;;;;;;;2.40;1.00;;;;;;;24.20;69.01;101452.25;177552;1259;45991;-84
2023/09/04 11:33:24;;;;;;;1.30;1.20;;;;;;;24.34;69.74;101448.50;177946;1260;46346;-85
2023/09/04 11:37:32;;;;;;;1.10;0.90;;;;;;;24.51;65.96;101443.70;178083;1259;46130;-84
2023/09/04 11:41:35;;;;;;;3.50;1.70;;;;;;;24.66;64.91;101444.58;178204;1258;57923;-84
2023/09/04 11:45:38;;;;;;;4.30;1.90;;;;;;;24.80;65.85;101439.70;177897;1259;46378;-84
2023/09/04 11:49:42;;;;;;;1.70;1.20;;;;;;;24.65;66.25;101440.55;177960;1258;49394;-84
2023/09/04 11:53:45;;;;;;;6.50;3.50;;;;;;;24.57;68.24;101434.27;177588;1258;45936;-84
2023/09/04 11:57:49;;;;;;;2.00;1.70;;;;;;;24.59;68.27;101432.78;178853;1259;45971;-84
2023/09/04 12:01:52;;;;;;;1.30;1.20;;;;;;;24.70;66.78;101430.57;178375;1258;58571;-83
2023/09/04 12:05:56;;;;;;;1.40;1.00;;;;;;;24.89;64.98;101433.52;177880;1260;45952;-83
2023/09/04 12:09:59;;;;;;;3.10;1.70;;;;;;;25.03;63.59;101425.87;178690;1257;45986;-84
2023/09/04 12:14:11;;;;;;;2.80;1.90;;;;;;;25.03;64.39;101428.09;177978;1260;45986;-83
2023/09/04 12:18:15;;;;;;;3.90;2.10;;;;;;;24.92;63.84;101428.02;178117;1259;46187;-84
2023/09/04 12:22:20;;;;;;;1.90;1.00;;;;;;;24.73;64.57;101430.05;178213;1258;59067;-83
2023/09/04 12:26:23;;;;;;;1.80;1.50;;;;;;;24.69;63.23;101430.69;177846;1259;46007;-84
2023/09/04 12:30:26;;;;;;;2.60;1.20;;;;;;;24.81;61.56;101424.88;178197;1258;45240;-84
2023/09/04 12:34:30;;;;;;;3.10;2.30;;;;;;;24.98;62.11;101422.98;178256;1257;46120;-83
2023/09/04 12:38:35;;;;;;;3.20;1.40;;;;;;;25.16;58.90;101414.65;178420;1258;45955;-84
2023/09/04 12:42:38;;;;;;;1.60;1.20;;;;;;;25.31;63.69;101408.54;178200;1259;57957;-83
2023/09/04 12:46:42;;;;;;;2.00;1.20;;;;;;;25.42;63.11;101405.05;178030;1257;46095;-84
2023/09/04 12:50:45;;;;;;;2.70;1.40;;;;;;;25.39;63.15;101405.83;178302;1259;46194;-84
2023/09/04 12:54:48;;;;;;;3.80;0.90;;;;;;;25.43;62.71;101397.98;177835;1257;45906;-83
2023/09/04 12:58:52;;;;;;;1.70;0.90;;;;;;;25.54;62.37;101395.53;178297;1258;45993;-86
2023/09/04 13:02:55;;;;;;;3.20;1.40;;;;;;;25.55;58.02;101395.58;178808;1259;57981;-86
2023/09/04 13:06:58;;;;;;;3.30;0.70;;;;;;;25.68;57.81;101391.82;178549;1259;45978;-86
2023/09/04 13:11:05;;;;;;;0.90;0.80;;;;;;;25.74;56.80;101378.77;178392;1259;43959;-86
2023/09/04 13:15:08;;;;;;;2.10;1.00;;;;;;;25.64;57.02;101373.39;178852;1259;46048;-87
2023/09/04 13:19:13;;;;;;;1.30;1.00;;;;;;;25.78;56.92;101370.70;179218;1260;45910;-85
2023/09/04 13:23:17;;;;;;;1.10;0.90;;;;;;;25.82;56.18;101362.02;178558;1259;59563;-87
2023/09/04 13:27:21;;;;;;;1.70;0.90;;;;;;;26.00;56.93;101355.43;178933;1259;46067;-88
2023/09/04 13:31:24;;;;;;;1.70;1.60;;;;;;;26.12;57.38;101360.09;180318;1259;44142;-87
2023/09/04 13:35:28;;;;;;;1.90;0.90;;;;;;;26.03;60.55;101356.15;178393;1260;45918;-87
2023/09/04 13:39:31;;;;;;;3.00;1.40;;;;;;;25.92;62.93;101351.28;178837;1260;44173;-89
2023/09/04 13:43:34;;;;;;;2.40;1.20;;;;;;;25.62;63.41;101348.77;178327;1259;58220;-88
2023/09/04 13:47:37;;;;;;;2.90;1.10;;;;;;;25.44;64.92;101342.98;179568;1259;45962;-88
2023/09/04 13:56:38;;;;;;;1.30;0.80;;;;;;;25.31;63.61;101338.20;179825;1259;44291;-90
2023/09/04 14:00:42;;;;;;;1.20;1.10;;;;;;;25.36;59.92;101329.86;179465;1259;44992;-89
2023/09/04 14:04:45;;;;;;;2.30;1.10;;;;;;;25.53;61.90;101323.04;179011;1263;61478;-87
2023/09/04 14:08:50;;;;;;;1.50;0.90;;;;;;;25.72;64.51;101321.34;179144;1259;46023;-87
2023/09/04 14:12:54;;;;;;;1.10;0.60;;;;;;;25.86;61.72;101321.48;179661;1259;46210;-88
2023/09/04 14:16:58;;;;;;;2.40;1.00;;;;;;;25.93;62.62;101323.40;179157;1259;44042;-88
2023/09/04 14:21:02;;;;;;;1.50;1.00;;;;;;;25.62;65.19;101317.64;178894;1259;45956;-89
2023/09/04 14:25:09;;;;;;;1.30;0.80;;;;;;;25.43;65.47;101317.05;179052;1259;59687;-88
2023/09/04 14:29:14;;;;;;;1.00;0.70;;;;;;;25.30;66.66;101322.55;179123;1259;45868;-89
2023/09/04 14:33:17;;;;;;;2.60;1.30;;;;;;;25.28;64.37;101316.42;179015;1259;46063;-89
2023/09/04 14:37:21;;;;;;;3.20;1.00;;;;;;;25.44;65.07;101318.52;179014;1259;46101;-89
2023/09/04 14:41:29;;;;;;;1.00;0.80;;;;;;;25.47;64.48;101317.04;179628;1259;45992;-89
2023/09/04 14:45:34;;;;;;;1.50;1.10;;;;;;;25.46;63.10;101319.41;179225;1259;59812;-89
2023/09/04 14:49:38;;;;;;;1.10;0.90;;;;;;;25.40;66.27;101319.02;179450;1259;45823;-91
2023/09/04 14:53:44;;;;;;;2.40;1.20;;;;;;;25.40;67.54;101320.00;179571;1259;45984;-92
2023/09/04 14:57:53;;;;;;;2.10;1.30;;;;;;;25.45;66.24;101311.83;179883;1259;44622;-92
2023/09/04 15:02:01;;;;;;;3.70;0.70;;;;;;;25.37;66.23;101311.80;179981;1259;45956;-92
2023/09/04 15:06:30;;;;;;;1.80;1.40;;;;;;;25.11;66.26;101313.51;179655;1263;60237;-91
2023/09/04 15:10:35;;;;;;;6.00;1.20;;;;;;;24.99;65.59;101313.95;179324;1263;46104;-92
2023/09/04 15:14:39;;;;;;;4.60;1.80;;;;;;;25.02;66.41;101315.37;179324;1266;45001;-90
2023/09/04 15:18:46;;;;;;;4.80;1.50;;;;;;;25.14;64.70;101315.24;179052;1264;45117;-91
2023/09/04 15:22:55;;;;;;;2.60;1.20;;;;;;;25.05;64.80;101308.52;179471;1254;49652;-87
2023/09/04 15:26:58;;;;;;;3.50;1.60;;;;;;;24.88;64.50;101312.11;179381;1259;59472;-86
2023/09/04 15:31:02;;;;;;;1.20;0.70;;;;;;;24.79;65.17;101311.20;180850;1259;43811;-85
2023/09/04 15:35:06;;;;;;;1.80;1.50;;;;;;;24.74;67.34;101315.05;178693;1259;45980;-87
2023/09/04 15:39:09;;;;;;;1.20;1.10;;;;;;;24.81;69.14;101317.41;178965;1259;46089;-87
2023/09/04 15:43:13;;;;;;;3.30;0.70;;;;;;;24.98;67.51;101318.42;178502;1259;46095;-86
2023/09/04 15:47:17;;;;;;;2.80;1.30;;;;;;;25.02;66.93;101315.91;179334;1263;58980;-87
2023/09/04 15:51:22;;;;;;;1.30;0.80;;;;;;;24.98;66.60;101308.63;179011;1259;46553;-86
2023/09/04 15:55:25;;;;;;;1.90;1.10;;;;;;;24.91;68.93;101308.16;178100;1259;46021;-86
2023/09/04 15:59:31;;;;;;;1.20;0.60;;;;;;;24.80;70.97;101313.92;179161;1259;44685;-87
2023/09/04 16:03:35;;;;;;;4.00;1.20;;;;;;;24.64;71.24;101312.31;178905;1259;46048;-87
2023/09/04 16:07:38;;;;;;;17.50;6.80;;;;;;;24.47;70.98;101309.39;179058;1259;59367;-88
2023/09/04 16:11:42;;;;;;;6.20;2.60;;;;;;;24.34;71.32;101308.02;178833;1259;46009;-88
2023/09/04 16:15:46;;;;;;;9.10;3.60;;;;;;;24.22;70.83;101304.36;178498;1260;46014;-86
2023/09/04 16:19:49;;;;;;;14.50;4.40;;;;;;;24.10;71.01;101303.02;178906;1259;46014;-87
2023/09/04 16:23:54;;;;;;;3.50;2.30;;;;;;;24.03;71.66;101303.96;179000;1262;45937;-87
2023/09/04 16:27:57;;;;;;;5.30;3.00;;;;;;;23.94;71.55;101311.52;178557;1259;58322;-87
2023/09/04 16:32:01;;;;;;;8.60;3.40;;;;;;;23.88;74.72;101312.12;177909;1259;46103;-86
2023/09/04 16:36:05;;;;;;;6.50;3.80;;;;;;;23.84;74.09;101307.85;178111;1259;44675;-87
2023/09/04 16:40:12;;;;;;;4.00;2.50;;;;;;;23.83;74.42;101311.81;177919;1260;46064;-87
2023/09/04 16:44:16;;;;;;;4.50;4.10;;;;;;;23.79;74.93;101312.73;178665;1259;46092;-87
2023/09/04 16:48:20;;;;;;;3.70;2.90;;;;;;;23.76;74.70;101309.70;178057;1259;58077;-87
2023/09/04 16:52:23;;;;;;;5.20;3.40;;;;;;;23.72;75.19;101314.38;178460;1259;45620;-85
2023/09/04 16:56:27;;;;;;;4.00;2.70;;;;;;;23.70;74.29;101319.29;178647;1259;45958;-87
2023/09/04 17:00:31;;;;;;;3.20;2.40;;;;;;;23.67;74.79;101318.55;178485;1259;45994;-87
2023/09/04 17:04:34;;;;;;;2.80;1.60;;;;;;;23.63;74.08;101321.48;178444;1259;46050;-87
2023/09/04 17:08:38;;;;;;;4.30;1.90;;;;;;;23.58;73.75;101325.81;178814;1259;59423;-86
2023/09/04 17:12:41;;;;;;;18.40;7.80;;;;;;;23.52;74.04;101322.38;178371;1259;45888;-87
2023/09/04 17:16:45;;;;;;;8.10;5.20;;;;;;;23.46;74.45;101319.16;179880;1259;46202;-87
2023/09/04 17:20:48;;;;;;;5.30;2.40;;;;;;;23.36;74.36;101320.69;179765;1259;46092;-86
2023/09/04 17:24:51;;;;;;;8.00;3.50;;;;;;;23.26;74.38;101319.84;178430;1259;46104;-87
2023/09/04 17:28:55;;;;;;;7.30;2.10;;;;;;;23.18;74.92;101323.55;178546;1259;59267;-87
2023/09/04 17:33:01;;;;;;;19.80;8.70;;;;;;;23.06;75.92;101319.69;178643;1261;46537;-88
2023/09/04 17:37:05;;;;;;;12.00;6.60;;;;;;;22.96;77.06;101321.44;177537;1259;46462;-86
2023/09/04 17:41:10;;;;;;;3.30;2.60;;;;;;;22.87;77.90;101320.53;177833;1262;45978;-87
2023/09/04 17:45:14;;;;;;;9.70;5.50;;;;;;;22.79;78.30;101325.17;178122;1259;46021;-88
2023/09/04 17:49:18;;;;;;;9.50;4.60;;;;;;;22.73;79.01;101320.50;178398;1259;60740;-86
2023/09/04 17:53:21;;;;;;;21.40;8.60;;;;;;;22.69;78.91;101321.48;178853;1259;45991;-88
2023/09/04 17:57:25;;;;;;;17.00;9.10;;;;;;;22.65;79.57;101326.63;178151;1259;45960;-86
2023/09/04 18:01:29;;;;;;;13.80;9.10;;;;;;;22.60;80.22;101331.74;179874;1259;45994;-86
2023/09/04 18:05:33;;;;;;;5.50;4.90;;;;;;;22.56;79.41;101332.58;178942;1260;45919;-88
2023/09/04 18:09:36;;;;;;;15.10;6.90;;;;;;;22.55;81.05;101330.73;179226;1259;58388;-87
2023/09/04 18:13:39;;;;;;;8.20;5.30;;;;;;;22.44;89.56;101333.77;180273;1259;44782;-87
2023/09/04 18:17:43;;;;;;;13.50;6.50;;;;;;;22.32;89.31;101334.80;180433;1259;45901;-87
2023/09/04 18:21:46;;;;;;;6.90;4.20;;;;;;;22.29;89.48;101336.52;180226;1259;44101;-88
2023/09/04 18:25:50;;;;;;;3.70;2.70;;;;;;;22.27;89.79;101338.08;179223;1259;43956;-86
2023/09/04 18:29:54;;;;;;;13.70;5.40;;;;;;;22.21;89.79;101335.80;179512;1259;59685;-87
2023/09/04 18:33:57;;;;;;;15.80;6.50;;;;;;;22.12;90.40;101335.11;180870;1259;43854;-88
2023/09/04 18:38:02;;;;;;;9.60;6.50;;;;;;;22.03;90.64;101336.27;180423;1259;52564;-88
2023/09/04 18:42:08;;;;;;;5.70;4.30;;;;;;;21.96;92.78;101340.88;179472;1259;44574;-87
2023/09/04 18:46:12;;;;;;;6.70;3.70;;;;;;;21.90;92.36;101337.00;178474;1259;45977;-87